Time;durP1;ratioP1;P1;durP2;ratioP2;P2;SDS_P1;SDS_P2;PMS_P1;PMS_P2;Temp;Humidity;BMP_temperature;BMP_pressure;BME280_temperature;BME280_humidity;BME280_pressure;Samples;Min_cycle;Max_cycle;Signal;HPM_P1;HPM_P2
2021/12/16 00:05:44;;;;;;;18.20;8.95;;;8.30;99.90;;;;;;5086629;28;20110;-81
2021/12/16 00:08:55;;;;;;;19.42;9.25;;;8.40;99.90;;;;;;5053304;28;20045;-81
2021/12/16 00:19:42;;;;;;;19.40;8.88;;;8.50;99.90;;;;;;5022457;28;20095;-81
2021/12/16 00:35:37;;;;;;;12.60;7.15;;;8.60;99.90;;;;;;5086314;28;20041;-81
2021/12/16 00:38:04;;;;;;;18.50;7.95;;;8.60;99.90;;;;;;5052868;28;20048;-81
2021/12/16 00:40:29;;;;;;;16.63;8.13;;;8.60;99.90;;;;;;5068957;28;20052;-81
2021/12/16 00:43:00;;;;;;;16.48;7.55;;;8.60;99.90;;;;;;5034332;28;20037;-81
2021/12/16 00:45:42;;;;;;;15.52;7.88;;;8.60;99.90;;;;;;5052385;28;20037;-81
2021/12/16 00:56:14;;;;;;;15.85;7.93;;;8.70;99.90;;;;;;5085655;28;20047;-81
2021/12/16 00:58:47;;;;;;;14.63;7.30;;;8.70;99.90;;;;;;5035808;28;20371;-81
2021/12/16 01:01:44;;;;;;;19.15;8.10;;;8.70;99.90;;;;;;5052182;28;20402;-81
2021/12/16 01:09:56;;;;;;;13.30;7.28;;;8.70;99.90;;;;;;5086036;28;20121;-81
2021/12/16 01:42:16;;;;;;;16.67;6.65;;;8.80;99.90;;;;;;5085387;28;20454;-81
2021/12/16 01:47:24;;;;;;;16.20;6.30;;;8.80;99.90;;;;;;5049404;28;20308;-81
2021/12/16 01:50:09;;;;;;;14.73;6.40;;;8.90;99.90;;;;;;5050255;28;20044;-81
2021/12/16 01:53:07;;;;;;;19.98;6.88;;;8.90;99.90;;;;;;5051132;28;20037;-81
2021/12/16 01:55:47;;;;;;;19.52;7.40;;;8.90;99.90;;;;;;5050695;28;20044;-81
2021/12/16 01:58:23;;;;;;;17.17;6.70;;;8.90;99.90;;;;;;5051355;28;20125;-81
2021/12/16 02:03:45;;;;;;;16.02;6.63;;;8.90;99.90;;;;;;5084853;28;20453;-81
2021/12/16 02:08:57;;;;;;;16.08;6.20;;;8.90;99.90;;;;;;5084754;28;20084;-81
2021/12/16 02:11:42;;;;;;;15.75;7.10;;;9.00;99.90;;;;;;5051057;28;20111;-81
2021/12/16 02:35:41;;;;;;;16.08;6.68;;;8.90;99.90;;;;;;5084681;28;20102;-81
2021/12/16 02:38:07;;;;;;;13.95;6.60;;;8.90;99.90;;;;;;5051079;28;20084;-81
2021/12/16 02:40:34;;;;;;;18.80;7.22;;;8.90;99.90;;;;;;5050919;28;20065;-81
2021/12/16 02:43:25;;;;;;;17.75;7.72;;;8.90;99.90;;;;;;5067367;28;20402;-81
2021/12/16 02:48:35;;;;;;;15.05;6.68;;;8.90;99.90;;;;;;5084211;28;20186;-81
2021/12/16 02:51:10;;;;;;;20.63;7.18;;;8.90;99.90;;;;;;5050526;28;20084;-81
2021/12/16 02:53:41;;;;;;;15.48;6.70;;;8.90;99.90;;;;;;5050094;28;20125;-81
2021/12/16 02:56:07;;;;;;;20.40;7.63;;;8.90;99.90;;;;;;5050128;28;20541;-81
2021/12/16 02:58:34;;;;;;;16.60;7.25;;;8.80;99.90;;;;;;5033092;28;20098;-81
2021/12/16 03:01:34;;;;;;;17.42;7.30;;;8.80;99.90;;;;;;5050370;28;20033;-81
2021/12/16 03:04:02;;;;;;;16.98;6.88;;;8.80;99.90;;;;;;5050296;28;20032;-81
2021/12/16 03:06:30;;;;;;;20.23;7.18;;;8.70;99.90;;;;;;5049686;28;20049;-81
2021/12/16 03:08:57;;;;;;;13.57;6.60;;;8.70;99.90;;;;;;5048547;28;20040;-81
2021/12/16 03:11:32;;;;;;;15.10;6.20;;;8.70;99.90;;;;;;5050233;28;20116;-81
2021/12/16 03:14:23;;;;;;;17.23;7.07;;;8.60;99.90;;;;;;5053972;28;20059;-81
2021/12/16 03:19:59;;;;;;;16.38;7.28;;;8.50;99.90;;;;;;5088016;28;20049;-81
2021/12/16 03:25:20;;;;;;;14.07;7.20;;;8.40;99.90;;;;;;5087462;28;20107;-81
2021/12/16 03:28:19;;;;;;;15.07;7.80;;;8.40;99.90;;;;;;5087845;28;20041;-81
2021/12/16 03:31:05;;;;;;;18.73;7.63;;;8.30;99.90;;;;;;5087249;28;20044;-81
2021/12/16 03:36:07;;;;;;;21.10;7.90;;;8.10;99.90;;;;;;5087124;28;20041;-81
2021/12/16 03:38:36;;;;;;;16.27;7.05;;;8.00;99.90;;;;;;5053811;28;20040;-81
2021/12/16 03:41:04;;;;;;;16.67;7.63;;;8.00;99.90;;;;;;5070434;28;20044;-81
2021/12/16 03:43:31;;;;;;;17.10;8.63;;;7.90;99.90;;;;;;5053529;28;20083;-81
2021/12/16 03:48:58;;;;;;;16.55;7.60;;;7.90;99.90;;;;;;5087324;28;20132;-81
2021/12/16 03:51:40;;;;;;;14.77;7.75;;;7.90;99.90;;;;;;5053635;28;20045;-81
2021/12/16 03:54:26;;;;;;;21.85;8.57;;;7.80;99.90;;;;;;5053274;28;20077;-81
2021/12/16 03:56:53;;;;;;;17.75;7.88;;;7.70;99.90;;;;;;5053121;28;20056;-81
2021/12/16 03:59:22;;;;;;;17.33;7.70;;;7.70;99.90;;;;;;5086571;28;20041;-81
2021/12/16 04:01:48;;;;;;;18.20;7.82;;;7.60;99.90;;;;;;5069845;28;20041;-81
2021/12/16 04:04:15;;;;;;;18.75;8.13;;;7.60;99.90;;;;;;5053192;28;20041;-81
2021/12/16 04:06:41;;;;;;;19.52;8.55;;;7.60;99.90;;;;;;5053060;28;20037;-81
2021/12/16 04:09:09;;;;;;;18.23;8.23;;;7.50;99.90;;;;;;5053168;28;20044;-81
2021/12/16 04:11:41;;;;;;;13.55;7.47;;;7.50;99.90;;;;;;5052972;28;20569;-81
2021/12/16 04:14:13;;;;;;;14.43;7.55;;;7.50;99.90;;;;;;5052704;28;20083;-81
2021/12/16 04:16:45;;;;;;;15.25;8.00;;;7.50;99.90;;;;;;5052816;28;20044;-81
2021/12/16 04:19:14;;;;;;;20.85;8.73;;;7.40;99.90;;;;;;5052985;28;20033;-81
2021/12/16 04:21:45;;;;;;;19.13;8.13;;;7.40;99.90;;;;;;5053055;28;20414;-81
2021/12/16 04:24:11;;;;;;;17.58;8.27;;;7.40;99.90;;;;;;5051688;28;20088;-81
2021/12/16 04:26:39;;;;;;;18.65;8.50;;;7.40;99.90;;;;;;5053000;28;20041;-81
2021/12/16 04:29:05;;;;;;;21.00;7.85;;;7.30;99.90;;;;;;5052769;28;20041;-81
2021/12/16 04:31:33;;;;;;;16.08;8.02;;;7.30;99.90;;;;;;5052032;28;20091;-81
2021/12/16 04:33:59;;;;;;;18.45;8.25;;;7.30;99.90;;;;;;5051840;28;20045;-81
2021/12/16 04:36:25;;;;;;;19.85;8.50;;;7.20;99.90;;;;;;5052731;28;20124;-81
2021/12/16 04:38:52;;;;;;;18.58;8.45;;;7.20;99.90;;;;;;5052662;28;20126;-81
2021/12/16 04:41:18;;;;;;;17.23;8.20;;;7.20;99.90;;;;;;5052835;28;20394;-81
2021/12/16 04:43:51;;;;;;;20.70;8.45;;;7.20;99.90;;;;;;5052602;28;20414;-81
2021/12/16 04:46:20;;;;;;;14.38;8.10;;;7.20;99.90;;;;;;5036102;28;20077;-81
2021/12/16 04:48:49;;;;;;;18.67;8.20;;;7.20;99.90;;;;;;5052649;28;20091;-81
2021/12/16 04:51:17;;;;;;;13.40;8.00;;;7.20;99.90;;;;;;5052287;28;20131;-81
2021/12/16 04:53:43;;;;;;;19.20;8.88;;;7.20;99.90;;;;;;5052071;28;20040;-81
2021/12/16 04:56:11;;;;;;;17.15;8.00;;;7.10;99.90;;;;;;5085897;28;20527;-81
2021/12/16 04:58:40;;;;;;;17.52;8.38;;;7.20;99.90;;;;;;5052454;28;20044;-81
2021/12/16 05:01:05;;;;;;;17.33;7.68;;;7.10;99.90;;;;;;5052151;28;20041;-81
2021/12/16 05:03:32;;;;;;;13.60;7.82;;;7.00;99.90;;;;;;5052305;28;20174;-81
2021/12/16 05:05:58;;;;;;;13.52;7.70;;;7.10;99.90;;;;;;5052202;28;20094;-82
2021/12/16 05:08:24;;;;;;;19.15;8.18;;;7.10;99.90;;;;;;5052618;28;20444;-81
2021/12/16 05:10:52;;;;;;;15.82;7.78;;;7.10;99.90;;;;;;5085958;28;20041;-81
2021/12/16 05:13:21;;;;;;;16.58;8.02;;;7.10;99.90;;;;;;5051503;28;20090;-82
2021/12/16 05:15:47;;;;;;;18.05;7.75;;;7.10;99.90;;;;;;5035267;28;20032;-82
2021/12/16 05:18:20;;;;;;;12.15;7.30;;;7.10;99.90;;;;;;5052001;28;20116;-81
2021/12/16 05:20:46;;;;;;;18.83;9.07;;;7.20;99.90;;;;;;5052250;28;20044;-82
2021/12/16 05:28:44;;;;;;;16.42;8.15;;;7.30;99.90;;;;;;5085925;28;20033;-81
2021/12/16 05:31:10;;;;;;;20.20;8.57;;;7.30;99.90;;;;;;5052142;28;20190;-81
2021/12/16 05:33:36;;;;;;;16.73;8.38;;;7.30;99.90;;;;;;5053132;28;20052;-81
2021/12/16 05:36:02;;;;;;;18.10;8.82;;;7.40;99.90;;;;;;5034669;28;20401;-81
2021/12/16 05:38:29;;;;;;;18.13;8.32;;;7.30;99.90;;;;;;5049853;28;20033;-81
2021/12/16 05:40:56;;;;;;;16.92;7.88;;;7.40;99.90;;;;;;5035751;28;20045;-81
2021/12/16 05:43:24;;;;;;;17.00;8.57;;;7.40;99.90;;;;;;5051472;28;20512;-82
2021/12/16 05:45:51;;;;;;;19.38;8.68;;;7.30;99.90;;;;;;5051408;28;20060;-82
2021/12/16 05:48:19;;;;;;;17.08;8.68;;;7.30;99.90;;;;;;5053862;28;20445;-82
2021/12/16 05:50:48;;;;;;;15.38;7.80;;;7.30;99.90;;;;;;5051225;28;20049;-82
2021/12/16 05:53:14;;;;;;;12.65;7.75;;;7.30;99.90;;;;;;5051100;28;20516;-82
2021/12/16 05:55:40;;;;;;;20.73;8.40;;;7.30;99.90;;;;;;5050919;28;20028;-82
2021/12/16 05:58:07;;;;;;;14.70;7.72;;;7.30;99.90;;;;;;5051087;28;20032;-82
2021/12/16 06:00:38;;;;;;;17.20;7.75;;;7.30;99.90;;;;;;5051420;28;20123;-82
2021/12/16 06:03:04;;;;;;;14.45;8.38;;;7.30;99.90;;;;;;5050971;28;20095;-82
2021/12/16 06:05:30;;;;;;;17.73;8.07;;;7.30;99.90;;;;;;5051386;28;20037;-82
2021/12/16 06:07:56;;;;;;;13.40;7.80;;;7.30;99.90;;;;;;5053270;28;20043;-82
2021/12/16 06:12:53;;;;;;;21.02;8.52;;;7.30;99.90;;;;;;5085127;28;20048;-82
2021/12/16 06:15:39;;;;;;;13.20;7.38;;;7.30;99.90;;;;;;5084260;28;20036;-81
2021/12/16 06:26:34;;;;;;;17.55;8.02;;;7.30;99.90;;;;;;5084869;28;20044;-82
2021/12/16 06:29:00;;;;;;;15.52;8.82;;;7.30;99.90;;;;;;5050821;28;20041;-82
2021/12/16 06:31:26;;;;;;;13.75;7.75;;;7.30;99.90;;;;;;5050778;28;20037;-80
2021/12/16 06:33:52;;;;;;;17.50;8.32;;;7.30;99.90;;;;;;5050678;28;20087;-82
2021/12/16 06:36:18;;;;;;;16.10;7.55;;;7.30;99.90;;;;;;5052413;28;20033;-82
2021/12/16 06:38:43;;;;;;;18.55;7.97;;;7.30;99.90;;;;;;5050186;28;20387;-82
2021/12/16 06:41:09;;;;;;;20.88;8.55;;;7.30;99.90;;;;;;5050617;28;20196;-82
2021/12/16 06:43:35;;;;;;;21.33;9.10;;;7.30;99.90;;;;;;5052071;28;20490;-82
2021/12/16 06:46:05;;;;;;;18.10;8.50;;;7.30;99.90;;;;;;5084223;28;20201;-82
2021/12/16 06:48:34;;;;;;;15.02;8.32;;;7.30;99.90;;;;;;5054209;28;20417;-82
2021/12/16 06:51:05;;;;;;;20.13;7.90;;;7.20;99.90;;;;;;5055091;28;20186;-81
2021/12/16 06:53:45;;;;;;;18.25;8.15;;;7.30;99.90;;;;;;5088576;28;20033;-82
2021/12/16 06:56:17;;;;;;;19.02;8.48;;;7.20;99.90;;;;;;5054438;28;20504;-82
2021/12/16 06:59:02;;;;;;;20.00;8.63;;;7.20;99.90;;;;;;5054795;28;20037;-82
2021/12/16 07:04:11;;;;;;;17.58;8.02;;;7.10;99.90;;;;;;5087827;28;20049;-82
2021/12/16 07:06:38;;;;;;;18.27;8.25;;;7.00;99.90;;;;;;5054476;28;20056;-82
2021/12/16 07:09:15;;;;;;;17.73;8.63;;;6.90;99.90;;;;;;5054013;28;20045;-82
2021/12/16 07:11:48;;;;;;;18.02;8.57;;;6.90;99.90;;;;;;5037235;28;20041;-82
2021/12/16 07:14:16;;;;;;;17.13;8.90;;;6.80;99.90;;;;;;5070429;28;20048;-82
2021/12/16 07:16:45;;;;;;;20.20;8.48;;;6.70;99.90;;;;;;5071079;28;20389;-82
2021/12/16 07:19:11;;;;;;;18.58;8.80;;;6.70;99.90;;;;;;5053959;28;20367;-82
2021/12/16 07:21:38;;;;;;;18.10;8.48;;;6.60;99.90;;;;;;5053810;28;20075;-82
2021/12/16 07:24:13;;;;;;;23.77;9.48;;;6.60;99.90;;;;;;5053567;28;20099;-82
2021/12/16 07:26:39;;;;;;;19.58;9.20;;;6.60;99.90;;;;;;5053558;28;20063;-82
2021/12/16 07:29:07;;;;;;;18.45;9.30;;;6.50;99.90;;;;;;5053726;28;20440;-82
2021/12/16 07:31:33;;;;;;;24.00;10.23;;;6.50;99.90;;;;;;5053842;28;20041;-81
2021/12/16 07:33:59;;;;;;;18.23;9.15;;;6.50;99.90;;;;;;5053560;28;20068;-81
2021/12/16 07:36:26;;;;;;;21.38;10.30;;;6.40;99.90;;;;;;5053838;28;20041;-81
2021/12/16 07:38:53;;;;;;;26.10;9.85;;;6.50;99.90;;;;;;5087365;28;20048;-81
2021/12/16 07:41:21;;;;;;;31.55;11.15;;;6.50;99.90;;;;;;5070711;28;20091;-81
2021/12/16 07:46:35;;;;;;;20.98;9.90;;;6.50;99.90;;;;;;5087084;28;20047;-81
2021/12/16 07:49:01;;;;;;;24.33;10.65;;;6.50;99.90;;;;;;5056014;28;20565;-82
2021/12/16 07:51:27;;;;;;;25.15;11.02;;;6.50;99.90;;;;;;5053592;28;20041;-81
2021/12/16 07:53:52;;;;;;;25.00;10.85;;;6.50;99.90;;;;;;5053130;28;20045;-81
2021/12/16 07:56:18;;;;;;;26.90;10.52;;;6.50;99.90;;;;;;5036714;28;20040;-81
2021/12/16 07:58:43;;;;;;;24.73;10.93;;;6.60;99.90;;;;;;5086560;28;20033;-82
2021/12/16 08:01:09;;;;;;;23.50;11.13;;;6.60;99.90;;;;;;5086746;28;20037;-82
2021/12/16 08:03:36;;;;;;;23.30;11.45;;;6.70;99.90;;;;;;5052882;28;20132;-81
2021/12/16 08:06:07;;;;;;;26.63;11.82;;;6.70;99.90;;;;;;5069404;28;20049;-82
2021/12/16 08:08:33;;;;;;;24.25;11.77;;;6.70;99.90;;;;;;5052842;28;20041;-81
2021/12/16 08:10:59;;;;;;;25.92;11.80;;;6.70;99.90;;;;;;5086473;28;20098;-82
2021/12/16 08:13:25;;;;;;;27.92;12.57;;;6.80;99.90;;;;;;5087221;28;20040;-82
2021/12/16 08:15:51;;;;;;;23.13;11.95;;;6.80;99.90;;;;;;5053708;28;20072;-82
2021/12/16 08:18:17;;;;;;;23.92;12.48;;;6.90;99.90;;;;;;5053185;28;20553;-82
2021/12/16 08:20:43;;;;;;;29.52;13.10;;;6.90;99.90;;;;;;5086363;28;20124;-82
2021/12/16 08:23:09;;;;;;;27.95;12.18;;;7.00;99.90;;;;;;5088593;28;20440;-82
2021/12/16 08:25:35;;;;;;;32.50;13.80;;;7.00;99.90;;;;;;5056301;28;20090;-82
2021/12/16 08:28:03;;;;;;;29.60;13.15;;;7.00;99.90;;;;;;5086023;28;20060;-82
2021/12/16 08:30:33;;;;;;;27.48;13.43;;;7.00;99.90;;;;;;5085644;28;20040;-82
2021/12/16 08:33:03;;;;;;;34.47;13.55;;;7.10;99.90;;;;;;5085666;28;20078;-83
2021/12/16 08:35:29;;;;;;;27.05;13.38;;;7.10;99.90;;;;;;5071980;28;20072;-82
2021/12/16 08:37:56;;;;;;;30.83;13.50;;;7.10;99.90;;;;;;5072393;28;20041;-82
2021/12/16 08:40:23;;;;;;;35.45;14.15;;;7.10;99.90;;;;;;5088981;28;20489;-82
2021/12/16 08:42:49;;;;;;;31.38;14.27;;;7.10;99.90;;;;;;5071134;28;20120;-82
2021/12/16 08:45:20;;;;;;;29.63;13.95;;;7.10;99.90;;;;;;5070805;28;20170;-82
2021/12/16 08:47:46;;;;;;;31.50;13.63;;;7.10;99.90;;;;;;5071335;28;20041;-82
2021/12/16 08:50:14;;;;;;;32.03;14.65;;;7.10;99.90;;;;;;5069903;28;20047;-82
2021/12/16 08:52:40;;;;;;;34.53;14.45;;;7.10;99.90;;;;;;5082275;28;20048;-83
2021/12/16 08:55:06;;;;;;;32.92;15.63;;;7.10;99.90;;;;;;5036226;28;20436;-82
2021/12/16 08:57:32;;;;;;;31.90;15.55;;;7.20;99.90;;;;;;5056311;28;20494;-82
2021/12/16 08:59:58;;;;;;;36.35;16.20;;;7.10;99.90;;;;;;5068551;28;20434;-82
2021/12/16 09:02:23;;;;;;;36.17;15.88;;;7.10;99.90;;;;;;5070055;28;20390;-83
2021/12/16 09:04:51;;;;;;;36.50;17.25;;;7.10;99.90;;;;;;5070873;28;20036;-82
2021/12/16 09:07:17;;;;;;;40.53;16.20;;;7.10;99.90;;;;;;5106267;28;20041;-82
2021/12/16 09:09:44;;;;;;;48.08;18.10;;;7.20;99.90;;;;;;5086798;28;20040;-82
2021/12/16 09:12:37;;;;;;;42.83;19.13;;;7.10;99.90;;;;;;5053935;28;20076;-83
2021/12/16 09:15:06;;;;;;;57.55;23.05;;;7.20;99.90;;;;;;5063003;28;20072;-83
2021/12/16 09:17:32;;;;;;;59.95;24.13;;;7.10;99.90;;;;;;5065547;28;20312;-82
2021/12/16 09:19:57;;;;;;;60.35;23.58;;;7.20;99.90;;;;;;5042405;28;20397;-83
2021/12/16 09:22:25;;;;;;;67.32;22.70;;;7.20;99.90;;;;;;5083732;28;20047;-82
2021/12/16 09:24:52;;;;;;;60.45;21.35;;;7.20;99.90;;;;;;5068642;28;20028;-82
2021/12/16 09:27:18;;;;;;;56.60;19.98;;;7.20;99.90;;;;;;5069435;28;20044;-82
2021/12/16 09:29:46;;;;;;;90.28;19.98;;;7.20;99.90;;;;;;5087713;28;20504;-82
2021/12/16 09:32:11;;;;;;;109.38;20.75;;;7.20;99.90;;;;;;5070361;28;20040;-82
2021/12/16 09:34:39;;;;;;;102.53;19.27;;;7.20;99.90;;;;;;5070476;28;20043;-82
2021/12/16 09:37:06;;;;;;;160.90;19.80;;;7.20;99.90;;;;;;5087200;28;20166;-82
2021/12/16 09:39:32;;;;;;;114.00;20.48;;;7.20;99.90;;;;;;5070502;28;20044;-82
2021/12/16 09:41:59;;;;;;;125.90;19.90;;;7.20;99.90;;;;;;5070764;28;20079;-83
2021/12/16 09:44:27;;;;;;;118.00;19.95;;;7.20;99.90;;;;;;5071014;28;20527;-83
2021/12/16 09:46:57;;;;;;;124.30;20.08;;;7.20;99.90;;;;;;5071101;28;20052;-82
2021/12/16 09:49:23;;;;;;;230.00;22.45;;;7.20;99.90;;;;;;5055250;28;20040;-84
2021/12/16 09:51:52;;;;;;;222.70;19.60;;;7.30;99.90;;;;;;5070068;28;20418;-82
2021/12/16 09:54:26;;;;;;;262.85;20.40;;;7.20;99.90;;;;;;5053694;28;20040;-82
2021/12/16 09:56:52;;;;;;;;;;;7.30;99.90;;;;;;5054183;28;20044;-83
2021/12/16 09:59:21;;;;;;;221.55;19.33;;;7.30;99.90;;;;;;5053890;28;19918;-83
2021/12/16 10:01:51;;;;;;;153.90;18.15;;;7.30;99.90;;;;;;5087800;28;20463;-83
2021/12/16 10:04:23;;;;;;;239.25;19.45;;;7.30;99.90;;;;;;5070217;28;20044;-82
2021/12/16 10:06:52;;;;;;;186.93;18.63;;;7.30;99.90;;;;;;5053810;28;20036;-82
2021/12/16 10:09:17;;;;;;;225.13;20.05;;;7.20;99.90;;;;;;5054051;28;20665;-83
2021/12/16 10:11:46;;;;;;;323.88;21.50;;;7.20;99.90;;;;;;5087026;28;20044;-82
2021/12/16 10:19:33;;;;;;;258.40;19.33;;;7.20;99.90;;;;;;5054726;28;20086;-82
2021/12/16 10:22:22;;;;;;;311.75;21.85;;;7.20;99.90;;;;;;5086355;28;20387;-83
2021/12/16 10:24:52;;;;;;;318.83;20.83;;;7.30;99.90;;;;;;5069527;28;20119;-82
2021/12/16 10:27:21;;;;;;;169.10;19.17;;;7.30;99.90;;;;;;5068523;28;20101;-82
2021/12/16 10:29:52;;;;;;;233.45;20.15;;;7.30;99.90;;;;;;5047069;28;20127;-82
2021/12/16 10:32:41;;;;;;;311.98;22.85;;;7.40;99.90;;;;;;5106026;27;20405;-82
2021/12/16 10:35:09;;;;;;;277.95;20.75;;;7.40;99.90;;;;;;5069894;28;20573;-82
2021/12/16 10:37:39;;;;;;;288.63;20.65;;;7.40;99.90;;;;;;5070101;28;20068;-82
2021/12/16 10:40:35;;;;;;;194.10;20.17;;;7.40;99.90;;;;;;5067055;28;20528;-82
2021/12/16 10:43:08;;;;;;;248.95;20.98;;;7.40;99.90;;;;;;5102590;28;20439;-83
2021/12/16 10:45:40;;;;;;;318.77;24.17;;;7.40;99.90;;;;;;5072912;28;20041;-83
2021/12/16 10:48:14;;;;;;;479.73;28.02;;;7.50;99.90;;;;;;5103458;28;20105;-82
2021/12/16 10:50:54;;;;;;;195.75;21.38;;;7.50;99.90;;;;;;5069711;28;20080;-82
2021/12/16 10:53:47;;;;;;;311.98;24.85;;;7.50;99.90;;;;;;5053216;28;20577;-82
2021/12/16 10:56:16;;;;;;;150.17;21.03;;;7.50;99.90;;;;;;5052918;28;20041;-82
2021/12/16 10:58:51;;;;;;;295.67;22.42;;;7.60;99.90;;;;;;5052889;28;20040;-82
2021/12/16 11:01:44;;;;;;;221.90;21.20;;;7.60;99.90;;;;;;5052728;28;20502;-82
2021/12/16 11:04:18;;;;;;;242.33;22.07;;;7.60;99.90;;;;;;5069609;28;20502;-82
2021/12/16 11:06:51;;;;;;;142.30;21.92;;;7.60;99.90;;;;;;5103875;28;20279;-82
2021/12/16 11:09:43;;;;;;;224.77;25.52;;;7.60;99.90;;;;;;5069628;28;20048;-82
2021/12/16 11:12:15;;;;;;;212.10;21.85;;;7.60;99.90;;;;;;5069539;28;20041;-83
2021/12/16 11:14:45;;;;;;;145.00;22.10;;;7.70;99.90;;;;;;5094934;28;20033;-82
2021/12/16 11:17:14;;;;;;;188.48;22.60;;;7.70;99.90;;;;;;5067449;28;20033;-82
2021/12/16 11:19:57;;;;;;;161.90;22.38;;;7.70;99.90;;;;;;5079315;28;20032;-82
2021/12/16 11:22:33;;;;;;;131.85;22.48;;;7.80;99.90;;;;;;5064125;28;20036;-82
2021/12/16 11:25:12;;;;;;;123.05;21.52;;;7.80;99.90;;;;;;5060797;28;20051;-82
2021/12/16 11:27:38;;;;;;;151.05;21.48;;;7.80;99.90;;;;;;5078437;28;20182;-82
2021/12/16 11:30:33;;;;;;;132.27;22.08;;;7.80;99.90;;;;;;5089912;28;20078;-82
2021/12/16 11:33:15;;;;;;;201.30;22.65;;;7.90;99.90;;;;;;5068608;28;20043;-81
2021/12/16 11:35:59;;;;;;;119.82;21.52;;;7.90;99.90;;;;;;5079681;28;20037;-82
2021/12/16 11:38:34;;;;;;;;;;;7.90;99.90;;;;;;5094140;28;20036;-82
2021/12/16 11:41:07;;;;;;;101.13;19.67;;;7.90;99.90;;;;;;5101029;28;20338;-82
2021/12/16 11:43:44;;;;;;;127.07;20.90;;;8.00;99.90;;;;;;5076621;28;20041;-82
2021/12/16 11:46:41;;;;;;;71.32;19.90;;;8.00;99.90;;;;;;5072615;28;20060;-82
2021/12/16 11:49:22;;;;;;;172.68;21.45;;;8.00;99.90;;;;;;5069831;28;20045;-82
2021/12/16 11:51:54;;;;;;;204.35;23.80;;;8.00;99.90;;;;;;5052199;28;20145;-82
2021/12/16 11:54:43;;;;;;;170.40;22.20;;;8.00;99.90;;;;;;5053462;28;20037;-82
2021/12/16 11:57:18;;;;;;;107.25;19.60;;;8.10;99.90;;;;;;5053356;28;20414;-82
2021/12/16 11:59:46;;;;;;;113.30;19.75;;;8.00;99.90;;;;;;5053511;28;20087;-82
2021/12/16 12:02:31;;;;;;;179.13;21.85;;;8.10;99.90;;;;;;5053014;28;20045;-82
2021/12/16 12:05:12;;;;;;;89.63;20.48;;;8.10;99.90;;;;;;5052768;28;20120;-82
2021/12/16 12:07:43;;;;;;;63.75;18.17;;;8.10;99.90;;;;;;5069480;28;20041;-82
2021/12/16 12:10:09;;;;;;;55.20;17.23;;;8.10;99.90;;;;;;5103229;28;20114;-83
2021/12/16 12:12:46;;;;;;;71.45;18.58;;;8.20;99.90;;;;;;5073869;28;20605;-82
2021/12/16 12:15:16;;;;;;;69.47;19.42;;;8.20;99.90;;;;;;5058854;28;20052;-82
2021/12/16 12:17:50;;;;;;;57.03;17.27;;;8.20;99.90;;;;;;5055820;28;20052;-82
2021/12/16 12:20:18;;;;;;;38.50;15.88;;;8.30;99.90;;;;;;5072688;28;20489;-82
2021/12/16 12:22:48;;;;;;;60.97;16.80;;;8.30;99.90;;;;;;5072275;28;20036;-82
2021/12/16 12:25:13;;;;;;;42.92;15.88;;;8.30;99.90;;;;;;5073003;28;20037;-82
2021/12/16 12:27:39;;;;;;;35.70;15.68;;;8.30;99.90;;;;;;5072516;28;20086;-82
2021/12/16 12:30:07;;;;;;;40.97;16.00;;;8.30;99.90;;;;;;5072342;28;20040;-82
2021/12/16 12:32:35;;;;;;;53.70;16.77;;;8.30;99.90;;;;;;5072243;28;20036;-83
2021/12/16 12:35:22;;;;;;;39.67;17.08;;;8.30;99.90;;;;;;5056197;28;20047;-82
2021/12/16 12:37:56;;;;;;;35.47;15.20;;;8.30;99.90;;;;;;5055512;28;20076;-82
2021/12/16 12:40:27;;;;;;;52.10;17.60;;;8.30;99.90;;;;;;5089436;28;20032;-82
2021/12/16 12:42:55;;;;;;;36.80;16.52;;;8.30;99.90;;;;;;5071477;28;20051;-82
2021/12/16 12:45:24;;;;;;;39.35;15.27;;;8.40;99.90;;;;;;5051468;28;20111;-82
2021/12/16 12:47:53;;;;;;;41.25;16.48;;;8.40;99.90;;;;;;5052596;28;20080;-82
2021/12/16 12:50:24;;;;;;;39.92;16.00;;;8.40;99.90;;;;;;5052054;28;20045;-82
2021/12/16 12:52:52;;;;;;;47.47;16.58;;;8.40;99.90;;;;;;5051556;28;20053;-82
2021/12/16 12:55:31;;;;;;;43.90;17.17;;;8.40;99.90;;;;;;5035316;28;20036;-82
2021/12/16 12:58:07;;;;;;;46.45;16.38;;;8.40;99.90;;;;;;5051883;28;20033;-82
2021/12/16 13:00:40;;;;;;;47.35;17.15;;;8.40;99.90;;;;;;5085600;28;20037;-82
2021/12/16 13:03:11;;;;;;;47.53;16.58;;;8.50;99.90;;;;;;5051904;28;20040;-82
2021/12/16 13:05:36;;;;;;;41.17;16.15;;;8.50;99.90;;;;;;5051959;28;20056;-82
2021/12/16 13:08:06;;;;;;;38.95;15.55;;;8.50;99.90;;;;;;5055508;28;20040;-82
2021/12/16 13:10:44;;;;;;;43.03;15.82;;;8.50;99.90;;;;;;5071363;28;20413;-82
2021/12/16 13:13:31;;;;;;;39.92;15.27;;;8.50;99.90;;;;;;5070522;28;20112;-82
2021/12/16 13:30:06;;;;;;;56.42;18.50;;;8.60;99.90;;;;;;5071623;28;20040;-82
2021/12/16 13:32:42;;;;;;;64.35;17.92;;;8.60;99.90;;;;;;5071133;28;20442;-82
2021/12/16 13:38:09;;;;;;;90.57;18.08;;;8.60;99.90;;;;;;5070164;28;20056;-82
2021/12/16 13:40:38;;;;;;;121.95;18.60;;;8.60;99.90;;;;;;5086893;28;20581;-82
2021/12/16 13:43:21;;;;;;;63.35;17.38;;;8.50;99.90;;;;;;5071083;28;20055;-82
2021/12/16 13:46:05;;;;;;;76.78;17.83;;;8.50;99.90;;;;;;5070897;28;20044;-82
2021/12/16 13:48:55;;;;;;;57.92;18.35;;;8.50;99.90;;;;;;5071242;28;20524;-82
2021/12/16 14:03:38;;;;;;;36.70;13.15;;;8.50;99.90;;;;;;5070525;28;20106;-82
2021/12/16 14:06:18;;;;;;;40.55;12.40;;;8.50;99.90;;;;;;5070473;28;20121;-82
2021/12/16 14:08:47;;;;;;;48.20;13.20;;;8.50;99.90;;;;;;5054000;28;20136;-82
2021/12/16 14:12:03;;;;;;;36.08;12.68;;;8.40;99.90;;;;;;5054987;28;20086;-82
2021/12/16 14:17:26;;;;;;;36.90;13.20;;;8.40;99.90;;;;;;5070723;28;20041;-82
2021/12/16 14:45:10;;;;;;;47.85;13.20;;;8.30;99.90;;;;;;5070267;28;20048;-82
2021/12/16 14:47:18;;;;;;;31.75;11.65;;;8.30;99.90;;;;;;5071163;28;20109;-82
2021/12/16 14:49:47;;;;;;;41.58;11.90;;;8.30;99.90;;;;;;5071004;28;20131;-82
2021/12/16 14:52:21;;;;;;;33.72;11.95;;;8.20;99.90;;;;;;5053055;28;20467;-82
2021/12/16 14:55:03;;;;;;;52.03;10.88;;;8.20;99.90;;;;;;5070450;28;20048;-82
2021/12/16 14:57:43;;;;;;;38.70;11.18;;;8.30;99.90;;;;;;5070255;28;20036;-82
2021/12/16 15:00:17;;;;;;;34.17;11.82;;;8.20;99.90;;;;;;5070033;28;20029;-82
2021/12/16 15:02:47;;;;;;;39.85;11.05;;;8.20;99.90;;;;;;5053238;28;20080;-82
2021/12/16 15:05:44;;;;;;;50.00;11.80;;;8.20;99.90;;;;;;5053335;28;20045;-82
2021/12/16 15:08:19;;;;;;;42.35;13.05;;;8.20;99.90;;;;;;5054418;28;20485;-82
2021/12/16 15:10:45;;;;;;;35.90;12.60;;;8.20;99.90;;;;;;5074241;28;20382;-82
2021/12/16 15:13:20;;;;;;;41.10;12.35;;;8.20;99.90;;;;;;5073502;28;20047;-82
2021/12/16 15:36:35;;;;;;;35.53;12.02;;;8.30;99.90;;;;;;5073562;28;20114;-82
2021/12/16 15:38:58;;;;;;;34.25;12.07;;;8.30;99.90;;;;;;5071163;28;20044;-82
2021/12/16 15:44:11;;;;;;;45.05;13.80;;;8.20;99.90;;;;;;5073002;28;20052;-82
2021/12/16 15:46:36;;;;;;;43.78;14.30;;;8.20;99.90;;;;;;5073119;28;20037;-83
2021/12/16 15:49:03;;;;;;;42.47;15.35;;;8.20;99.90;;;;;;5072497;28;20094;-82
2021/12/16 15:51:29;;;;;;;46.17;15.27;;;8.20;99.90;;;;;;5072723;28;20051;-82
2021/12/16 15:53:59;;;;;;;42.22;15.73;;;8.20;99.90;;;;;;5073012;28;20032;-82
2021/12/16 15:56:30;;;;;;;38.60;15.88;;;8.20;99.90;;;;;;5072842;28;20051;-82
2021/12/16 15:58:59;;;;;;;39.30;14.93;;;8.20;99.90;;;;;;5072910;28;20063;-82
2021/12/16 16:01:34;;;;;;;32.40;14.57;;;8.30;99.90;;;;;;5072746;28;20040;-82
2021/12/16 16:04:06;;;;;;;35.72;16.13;;;8.30;99.90;;;;;;5072535;28;20083;-82
2021/12/16 16:06:32;;;;;;;32.08;14.60;;;8.30;99.90;;;;;;5067968;28;20041;-82
2021/12/16 16:09:03;;;;;;;45.22;16.70;;;8.40;99.90;;;;;;5069671;28;20044;-82
2021/12/16 16:11:32;;;;;;;51.00;17.08;;;8.30;99.90;;;;;;5053892;28;20037;-82
2021/12/16 16:14:04;;;;;;;43.20;16.42;;;8.40;99.90;;;;;;5034889;28;20065;-82
2021/12/16 16:16:37;;;;;;;49.22;16.42;;;8.40;99.90;;;;;;5051826;28;20033;-82
2021/12/16 16:19:04;;;;;;;37.38;16.45;;;8.40;99.90;;;;;;5069139;28;20059;-82
2021/12/16 16:21:38;;;;;;;34.65;15.43;;;8.50;99.90;;;;;;5052889;28;20052;-82
2021/12/16 16:24:13;;;;;;;40.25;16.70;;;8.50;99.90;;;;;;5069030;28;20044;-81
2021/12/16 16:26:40;;;;;;;36.53;16.30;;;8.60;99.90;;;;;;5052076;28;20414;-81
2021/12/16 16:29:12;;;;;;;42.85;16.45;;;8.60;99.90;;;;;;5053388;28;20041;-81
2021/12/16 16:31:39;;;;;;;31.92;16.40;;;8.60;99.90;;;;;;5053292;28;20044;-81
2021/12/16 16:34:16;;;;;;;29.35;15.88;;;8.60;99.90;;;;;;5052771;28;20036;-81
2021/12/16 16:36:45;;;;;;;28.98;15.90;;;8.60;99.90;;;;;;5054213;28;20056;-81
2021/12/16 16:39:14;;;;;;;31.88;16.45;;;8.60;99.90;;;;;;5070463;28;20140;-81
2021/12/16 16:41:55;;;;;;;41.75;20.90;;;8.60;99.90;;;;;;5052812;28;20051;-81
2021/12/16 16:44:23;;;;;;;32.40;18.27;;;8.60;99.90;;;;;;5069121;28;20047;-81